Terminal Aerodrome Forecast
Issued by NWS

Home | Current Version | Previous Version | Text Only | Print | Product List | Glossary Off
Versions: 1 2 3 4 5 6 7 8 9 10 11 12 13 14 15 16 17 18 19 20

000
FTUS43 KIWX 230500
TAFSBN
TAF
KSBN 230520Z 2306/2406 12014KT 4SM -RA OVC030
     FM230800 13012KT 3SM -RA BR OVC008
     FM231100 16012KT 2SM BR OVC004
     FM231700 20010KT 5SM BR OVC015
     FM232100 20006KT 6SM BR SCT015 BKN150=

USA.gov is the U.S. government's official web portal to all federal, state and local government web resources and services.